createdAt,value
2018-07-15T00:00:10.257Z,789.71
2018-07-15T00:00:14.372Z,789.72
2018-07-15T00:00:18.578Z,789.73
2018-07-15T00:00:22.791Z,789.74
2018-07-15T00:00:27.002Z,789.72
2018-07-15T00:00:31.107Z,789.73
2018-07-15T00:00:35.208Z,789.75
2018-07-15T00:00:39.311Z,789.73
2018-07-15T00:00:43.514Z,789.75
2018-07-15T00:00:47.836Z,789.75
2018-07-15T00:00:52.151Z,789.75
2018-07-15T00:00:56.359Z,789.68
2018-07-15T00:01:00.672Z,789.69
2018-07-15T00:01:05.103Z,789.68
2018-07-15T00:01:09.208Z,789.72
2018-07-15T00:01:13.423Z,789.72
2018-07-15T00:01:17.735Z,789.67
2018-07-15T00:01:22.050Z,789.68
2018-07-15T00:01:26.252Z,789.71
2018-07-15T00:01:30.565Z,789.7
2018-07-15T00:01:34.673Z,789.74
2018-07-15T00:01:38.989Z,789.75
2018-07-15T00:01:43.301Z,789.72
2018-07-15T00:01:47.512Z,789.71
2018-07-15T00:01:51.843Z,789.71
2018-07-15T00:01:56.048Z,789.72
2018-07-15T00:02:00.362Z,789.71
2018-07-15T00:02:04.614Z,789.69
2018-07-15T00:02:08.827Z,789.72
2018-07-15T00:02:13.036Z,789.74
2018-07-15T00:02:17.140Z,789.71
2018-07-15T00:02:21.248Z,789.7
2018-07-15T00:02:25.451Z,789.71
2018-07-15T00:02:29.757Z,789.7
2018-07-15T00:02:33.962Z,789.71
2018-07-15T00:02:38.160Z,789.7
2018-07-15T00:02:42.252Z,789.7
2018-07-15T00:02:46.562Z,789.7
2018-07-15T00:02:50.655Z,789.71
2018-07-15T00:02:54.853Z,789.67
2018-07-15T00:02:59.059Z,789.71
2018-07-15T00:03:03.070Z,789.72
2018-07-15T00:03:07.279Z,789.7
2018-07-15T00:03:11.594Z,789.7
2018-07-15T00:03:15.802Z,789.69
2018-07-15T00:03:20.118Z,789.69
2018-07-15T00:03:24.222Z,789.68
2018-07-15T00:03:28.533Z,789.7
2018-07-15T00:03:32.658Z,789.7
2018-07-15T00:03:36.971Z,789.67
2018-07-15T00:03:41.284Z,789.68
2018-07-15T00:03:45.489Z,789.68
2018-07-15T00:03:49.690Z,789.68
2018-07-15T00:03:54.024Z,789.68
2018-07-15T00:03:58.225Z,789.7
2018-07-15T00:04:02.318Z,789.64
2018-07-15T00:04:06.311Z,789.67
2018-07-15T00:04:10.513Z,789.64
2018-07-15T00:04:14.825Z,789.64
2018-07-15T00:04:19.043Z,789.69
2018-07-15T00:04:23.349Z,789.67
2018-07-15T00:04:27.664Z,789.68
2018-07-15T00:04:31.867Z,789.69
2018-07-15T00:04:35.965Z,789.69
2018-07-15T00:04:40.170Z,789.69
2018-07-15T00:04:44.478Z,789.7
2018-07-15T00:04:48.686Z,789.7
2018-07-15T00:04:53.000Z,789.68
2018-07-15T00:04:57.106Z,789.67
2018-07-15T00:05:01.311Z,789.69
2018-07-15T00:05:05.306Z,789.68
2018-07-15T00:05:09.511Z,789.65
2018-07-15T00:05:13.725Z,789.67
2018-07-15T00:05:18.077Z,789.68
2018-07-15T00:05:22.282Z,789.7
2018-07-15T00:05:26.489Z,789.7
2018-07-15T00:05:30.811Z,789.68
2018-07-15T00:05:34.915Z,789.68
2018-07-15T00:05:39.121Z,789.66
2018-07-15T00:05:43.342Z,789.68
2018-07-15T00:05:47.545Z,789.67
2018-07-15T00:05:51.858Z,789.66
2018-07-15T00:05:55.960Z,789.7
2018-07-15T00:06:00.277Z,789.65
2018-07-15T00:06:04.381Z,789.67
2018-07-15T00:06:08.590Z,789.66
2018-07-15T00:06:12.902Z,789.67
2018-07-15T00:06:17.212Z,789.71
2018-07-15T00:06:21.528Z,789.63
2018-07-15T00:06:25.736Z,789.67
2018-07-15T00:06:29.947Z,789.68
2018-07-15T00:06:34.260Z,789.63
2018-07-15T00:06:38.574Z,789.67
2018-07-15T00:06:42.777Z,789.66
2018-07-15T00:06:46.899Z,789.66
2018-07-15T00:06:51.099Z,789.65
2018-07-15T00:06:55.299Z,789.66
2018-07-15T00:06:59.395Z,789.66
2018-07-15T00:07:03.603Z,789.67
2018-07-15T00:07:07.805Z,789.69
2018-07-15T00:07:12.119Z,789.68
2018-07-15T00:07:16.330Z,789.67
2018-07-15T00:07:20.535Z,789.64
2018-07-15T00:07:24.737Z,789.68
2018-07-15T00:07:28.622Z,789.66
2018-07-15T00:07:32.931Z,789.68
2018-07-15T00:07:37.198Z,789.66
2018-07-15T00:07:41.517Z,789.65
2018-07-15T00:07:45.727Z,789.63
2018-07-15T00:07:49.931Z,789.66
2018-07-15T00:07:54.132Z,789.65
2018-07-15T00:07:58.449Z,789.62
2018-07-15T00:08:02.679Z,789.6
2018-07-15T00:08:06.680Z,789.62
2018-07-15T00:08:10.892Z,789.61
2018-07-15T00:08:15.208Z,789.62
2018-07-15T00:08:19.517Z,789.62
2018-07-15T00:08:23.723Z,789.6
2018-07-15T00:08:27.827Z,789.64
2018-07-15T00:08:32.039Z,789.61
2018-07-15T00:08:36.241Z,789.58
2018-07-15T00:08:40.443Z,789.61
2018-07-15T00:08:44.538Z,789.59
2018-07-15T00:08:48.757Z,789.6
2018-07-15T00:08:53.069Z,789.6
2018-07-15T00:08:57.380Z,789.59
2018-07-15T00:09:01.580Z,789.62
2018-07-15T00:09:05.688Z,789.55
2018-07-15T00:09:09.896Z,789.61
2018-07-15T00:09:14.103Z,789.59
2018-07-15T00:09:18.305Z,789.6
2018-07-15T00:09:22.506Z,789.61
2018-07-15T00:09:26.492Z,789.59
2018-07-15T00:09:30.699Z,789.58
2018-07-15T00:09:34.687Z,789.56
2018-07-15T00:09:38.992Z,789.61
2018-07-15T00:09:43.196Z,789.6
2018-07-15T00:09:47.413Z,789.55
2018-07-15T00:09:51.629Z,789.54
2018-07-15T00:09:55.840Z,789.58
2018-07-15T00:10:00.055Z,789.58
2018-07-15T00:10:04.159Z,789.58
2018-07-15T00:10:08.320Z,789.61
2018-07-15T00:10:12.521Z,789.53
2018-07-15T00:10:16.726Z,789.55
2018-07-15T00:10:20.938Z,789.51
2018-07-15T00:10:25.259Z,789.51
2018-07-15T00:10:29.576Z,789.56
2018-07-15T00:10:33.838Z,789.56
2018-07-15T00:10:38.045Z,789.59
2018-07-15T00:10:42.140Z,789.58
2018-07-15T00:10:46.247Z,789.54
2018-07-15T00:10:50.571Z,789.57
2018-07-15T00:10:54.779Z,789.57
2018-07-15T00:10:58.880Z,789.57
2018-07-15T00:11:03.078Z,789.56
2018-07-15T00:11:07.072Z,789.57
2018-07-15T00:11:11.269Z,789.59
2018-07-15T00:11:15.576Z,789.55
2018-07-15T00:11:19.783Z,789.55
2018-07-15T00:11:23.981Z,789.54
2018-07-15T00:11:28.077Z,789.56
2018-07-15T00:11:32.279Z,789.56
2018-07-15T00:11:36.488Z,789.51
2018-07-15T00:11:40.797Z,789.57
2018-07-15T00:11:45.008Z,789.54
2018-07-15T00:11:49.321Z,789.56
2018-07-15T00:11:53.637Z,789.54
2018-07-15T00:11:57.836Z,789.51
2018-07-15T00:12:02.143Z,789.53
2018-07-15T00:12:06.244Z,789.53
2018-07-15T00:12:10.345Z,789.54
2018-07-15T00:12:14.655Z,789.51
2018-07-15T00:12:18.972Z,789.52
2018-07-15T00:12:23.171Z,789.47
2018-07-15T00:12:27.482Z,789.53
2018-07-15T00:12:31.682Z,789.55
2018-07-15T00:12:36.004Z,789.49
2018-07-15T00:12:40.214Z,789.54
2018-07-15T00:12:44.311Z,789.49
2018-07-15T00:12:48.523Z,789.52
2018-07-15T00:12:52.722Z,789.51
2018-07-15T00:12:56.931Z,789.5
2018-07-15T00:13:01.246Z,789.5
2018-07-15T00:13:05.342Z,789.49
2018-07-15T00:13:09.551Z,789.45
2018-07-15T00:13:13.870Z,789.42
2018-07-15T00:13:18.180Z,789.5
2018-07-15T00:13:22.495Z,789.5
2018-07-15T00:13:26.708Z,789.44
2018-07-15T00:13:30.920Z,789.46
2018-07-15T00:13:35.224Z,789.48
2018-07-15T00:13:39.429Z,789.47
2018-07-15T00:13:43.530Z,789.45
2018-07-15T00:13:47.836Z,789.46
2018-07-15T00:13:52.141Z,789.44
2018-07-15T00:13:56.238Z,789.47
2018-07-15T00:14:00.441Z,789.41
2018-07-15T00:14:04.646Z,789.49
2018-07-15T00:14:09.025Z,789.43
2018-07-15T00:14:13.341Z,789.44
2018-07-15T00:14:17.448Z,789.41
2018-07-15T00:14:21.672Z,789.43
2018-07-15T00:14:25.765Z,789.46
2018-07-15T00:14:30.075Z,789.44
2018-07-15T00:14:34.384Z,789.38
2018-07-15T00:14:38.692Z,789.4
2018-07-15T00:14:43.002Z,789.4
2018-07-15T00:14:47.214Z,789.4
2018-07-15T00:14:51.311Z,789.4
2018-07-15T00:14:55.512Z,789.38
2018-07-15T00:14:59.713Z,789.4
2018-07-15T00:15:03.810Z,789.39
2018-07-15T00:15:07.688Z,789.38
2018-07-15T00:15:11.888Z,789.38
2018-07-15T00:15:16.090Z,789.35
2018-07-15T00:15:20.292Z,789.35
2018-07-15T00:15:24.390Z,789.34
2018-07-15T00:15:28.712Z,789.37
2018-07-15T00:15:32.918Z,789.3
2018-07-15T00:15:36.913Z,789.36
2018-07-15T00:15:41.013Z,789.32
2018-07-15T00:15:45.320Z,789.31
2018-07-15T00:15:49.416Z,789.34
2018-07-15T00:15:53.613Z,789.31
2018-07-15T00:15:57.971Z,789.3
2018-07-15T00:16:02.083Z,789.29
2018-07-15T00:16:06.398Z,789.31
2018-07-15T00:16:10.395Z,789.32
2018-07-15T00:16:14.597Z,789.31
2018-07-15T00:16:18.815Z,789.28
2018-07-15T00:16:23.127Z,789.27
2018-07-15T00:16:27.348Z,789.28
2018-07-15T00:16:31.899Z,789.26
2018-07-15T00:16:36.245Z,789.24
2018-07-15T00:16:40.446Z,789.18
2018-07-15T00:16:44.754Z,789.25
2018-07-15T00:16:49.063Z,789.24
2018-07-15T00:16:53.276Z,789.22
2018-07-15T00:16:57.373Z,789.17
2018-07-15T00:17:01.755Z,789.21
2018-07-15T00:17:06.207Z,789.2
2018-07-15T00:17:10.320Z,789.18
2018-07-15T00:17:14.528Z,789.18
2018-07-15T00:17:18.848Z,789.16
2018-07-15T00:17:23.155Z,789.15
2018-07-15T00:17:27.356Z,789.15
2018-07-15T00:17:31.559Z,789.13
2018-07-15T00:17:35.872Z,789.14
2018-07-15T00:17:39.971Z,789.13
2018-07-15T00:17:44.171Z,789.09
2018-07-15T00:17:48.371Z,789.1
2018-07-15T00:17:52.580Z,789.13
2018-07-15T00:17:56.901Z,789.04
2018-07-15T00:18:01.108Z,789.07
2018-07-15T00:18:05.206Z,789.06
2018-07-15T00:18:09.225Z,789.03
2018-07-15T00:18:13.541Z,789.03
2018-07-15T00:18:17.741Z,789.04
2018-07-15T00:18:22.004Z,789.03
2018-07-15T00:18:26.213Z,788.99
2018-07-15T00:18:30.409Z,789
2018-07-15T00:18:34.633Z,789.02
2018-07-15T00:18:38.620Z,788.98
2018-07-15T00:18:42.939Z,788.94
2018-07-15T00:18:47.032Z,788.98
2018-07-15T00:18:51.235Z,788.97
2018-07-15T00:18:55.548Z,788.94
2018-07-15T00:18:59.860Z,788.95
2018-07-15T00:19:04.070Z,788.94
2018-07-15T00:19:08.169Z,788.92
2018-07-15T00:19:12.269Z,788.93
2018-07-15T00:19:16.473Z,788.92
2018-07-15T00:19:20.796Z,788.83
2018-07-15T00:19:24.889Z,788.81
2018-07-15T00:19:28.996Z,788.87
2018-07-15T00:19:33.093Z,788.86
2018-07-15T00:19:37.303Z,788.86
2018-07-15T00:19:41.620Z,788.85
2018-07-15T00:19:45.719Z,788.87
2018-07-15T00:19:49.978Z,788.83
2018-07-15T00:19:54.279Z,788.85
2018-07-15T00:19:58.374Z,788.83
2018-07-15T00:20:02.478Z,788.82
2018-07-15T00:20:06.674Z,788.81
2018-07-15T00:20:10.996Z,788.83
2018-07-15T00:20:15.251Z,788.8
2018-07-15T00:20:19.773Z,788.78
2018-07-15T00:20:23.984Z,788.8
2018-07-15T00:20:28.083Z,788.78
2018-07-15T00:20:32.291Z,788.69
2018-07-15T00:20:36.390Z,788.77
2018-07-15T00:20:40.704Z,788.8
2018-07-15T00:20:44.915Z,788.69
2018-07-15T00:20:48.807Z,788.76
2018-07-15T00:20:53.024Z,788.76
2018-07-15T00:20:57.130Z,788.71
2018-07-15T00:21:01.442Z,788.76
2018-07-15T00:21:05.805Z,788.76
2018-07-15T00:21:10.012Z,788.73
2018-07-15T00:21:14.229Z,788.75
2018-07-15T00:21:18.543Z,788.72
2018-07-15T00:21:22.864Z,788.77
2018-07-15T00:21:27.078Z,788.69
2018-07-15T00:21:31.396Z,788.77
2018-07-15T00:21:35.605Z,788.72
2018-07-15T00:21:39.812Z,788.65
2018-07-15T00:21:43.921Z,788.67
2018-07-15T00:21:48.122Z,788.68
2018-07-15T00:21:52.327Z,788.68
2018-07-15T00:21:56.431Z,788.71
2018-07-15T00:22:00.529Z,788.66
2018-07-15T00:22:04.735Z,788.69
2018-07-15T00:22:09.044Z,788.72
2018-07-15T00:22:13.149Z,788.7
2018-07-15T00:22:17.462Z,788.69
2018-07-15T00:22:21.680Z,788.69
2018-07-15T00:22:25.893Z,788.71
2018-07-15T00:22:29.897Z,788.71
2018-07-15T00:22:34.006Z,788.75
2018-07-15T00:22:38.210Z,788.74
2018-07-15T00:22:42.538Z,788.73
2018-07-15T00:22:46.853Z,788.76
2018-07-15T00:22:51.163Z,788.72
2018-07-15T00:22:55.376Z,788.75
2018-07-15T00:22:59.692Z,788.76
2018-07-15T00:23:03.804Z,788.76
2018-07-15T00:23:08.143Z,788.77
2018-07-15T00:23:12.458Z,788.76
2018-07-15T00:23:16.777Z,788.77
2018-07-15T00:23:20.979Z,788.72
2018-07-15T00:23:25.183Z,788.69
2018-07-15T00:23:29.495Z,788.75
2018-07-15T00:23:33.806Z,788.71
2018-07-15T00:23:38.007Z,788.71
2018-07-15T00:23:42.207Z,788.72
2018-07-15T00:23:46.408Z,788.7
2018-07-15T00:23:50.504Z,788.77
2018-07-15T00:23:54.817Z,788.74
2018-07-15T00:23:59.016Z,788.71
2018-07-15T00:24:03.232Z,788.69
2018-07-15T00:24:07.334Z,788.66
2018-07-15T00:24:11.644Z,788.7
2018-07-15T00:24:15.849Z,788.72
2018-07-15T00:24:20.066Z,788.71
2018-07-15T00:24:24.271Z,788.71
2018-07-15T00:24:28.361Z,788.7
2018-07-15T00:24:32.569Z,788.73
2018-07-15T00:24:36.563Z,788.74
2018-07-15T00:24:40.764Z,788.7
2018-07-15T00:24:44.861Z,788.73
2018-07-15T00:24:48.951Z,788.74
2018-07-15T00:24:53.154Z,788.71
2018-07-15T00:24:57.250Z,788.71
2018-07-15T00:25:01.462Z,788.74
2018-07-15T00:25:05.667Z,788.69
2018-07-15T00:25:09.885Z,788.69
2018-07-15T00:25:14.199Z,788.69
2018-07-15T00:25:18.399Z,788.71
2018-07-15T00:25:22.702Z,788.71
2018-07-15T00:25:26.914Z,788.68
2018-07-15T00:25:31.224Z,788.66
2018-07-15T00:25:35.428Z,788.69
2018-07-15T00:25:39.748Z,788.68
2018-07-15T00:25:44.066Z,788.66
2018-07-15T00:25:48.376Z,788.71
2018-07-15T00:25:52.685Z,788.7
2018-07-15T00:25:56.795Z,788.71
2018-07-15T00:26:00.991Z,788.71
2018-07-15T00:26:05.304Z,788.67
2018-07-15T00:26:09.399Z,788.65
2018-07-15T00:26:13.711Z,788.68
2018-07-15T00:26:17.923Z,788.66
2018-07-15T00:26:22.230Z,788.68
2018-07-15T00:26:26.441Z,788.63
2018-07-15T00:26:30.764Z,788.69
2018-07-15T00:26:34.969Z,788.68
2018-07-15T00:26:39.286Z,788.7
2018-07-15T00:26:43.392Z,788.64
2018-07-15T00:26:47.591Z,788.68
2018-07-15T00:26:51.805Z,788.62
2018-07-15T00:26:55.899Z,788.65
2018-07-15T00:27:00.099Z,788.67
2018-07-15T00:27:04.197Z,788.64
2018-07-15T00:27:08.522Z,788.65
2018-07-15T00:27:12.731Z,788.65
2018-07-15T00:27:17.043Z,788.65
2018-07-15T00:27:21.246Z,788.66
2018-07-15T00:27:25.554Z,788.63
2018-07-15T00:27:29.877Z,788.65
2018-07-15T00:27:34.190Z,788.62
2018-07-15T00:27:38.401Z,788.62
2018-07-15T00:27:42.607Z,788.65
2018-07-15T00:27:46.595Z,788.55
2018-07-15T00:27:50.803Z,788.64
2018-07-15T00:27:55.004Z,788.61
2018-07-15T00:27:59.317Z,788.57
2018-07-15T00:28:03.415Z,788.64
2018-07-15T00:28:07.619Z,788.63
2018-07-15T00:28:11.823Z,788.59
2018-07-15T00:28:16.030Z,788.6
2018-07-15T00:28:20.228Z,788.57
2018-07-15T00:28:24.534Z,788.59
2018-07-15T00:28:28.732Z,788.61
2018-07-15T00:28:33.049Z,788.63
2018-07-15T00:28:37.362Z,788.61
2018-07-15T00:28:41.464Z,788.59
2018-07-15T00:28:45.776Z,788.6
2018-07-15T00:28:49.872Z,788.61
2018-07-15T00:28:54.076Z,788.62
2018-07-15T00:28:58.383Z,788.66
2018-07-15T00:29:02.582Z,788.64
2018-07-15T00:29:06.782Z,788.64
2018-07-15T00:29:10.991Z,788.62
2018-07-15T00:29:15.304Z,788.62
2018-07-15T00:29:19.401Z,788.62
2018-07-15T00:29:23.613Z,788.62
2018-07-15T00:29:27.817Z,788.59
2018-07-15T00:29:32.150Z,788.56
2018-07-15T00:29:36.389Z,788.61
2018-07-15T00:29:40.590Z,788.6
2018-07-15T00:29:44.684Z,788.6
2018-07-15T00:29:48.892Z,788.58
2018-07-15T00:29:53.205Z,788.59
2018-07-15T00:29:57.519Z,788.57
2018-07-15T00:30:01.729Z,788.58
2018-07-15T00:30:05.943Z,788.59
2018-07-15T00:30:10.192Z,788.58
2018-07-15T00:30:14.393Z,788.59
2018-07-15T00:30:18.601Z,788.58
2018-07-15T00:30:22.809Z,788.53
2018-07-15T00:30:26.794Z,788.58
2018-07-15T00:30:31.009Z,788.6
2018-07-15T00:30:35.210Z,788.58
2018-07-15T00:30:39.429Z,788.57
2018-07-15T00:30:43.629Z,788.56
2018-07-15T00:30:47.843Z,788.58
2018-07-15T00:30:52.043Z,788.54
2018-07-15T00:30:56.135Z,788.55
2018-07-15T00:31:00.490Z,788.59
2018-07-15T00:31:04.490Z,788.57
2018-07-15T00:31:08.588Z,788.58
2018-07-15T00:31:12.902Z,788.55
2018-07-15T00:31:17.211Z,788.58
2018-07-15T00:31:21.208Z,788.56
2018-07-15T00:31:25.529Z,788.58
2018-07-15T00:31:29.733Z,788.6
2018-07-15T00:31:34.051Z,788.56
2018-07-15T00:31:38.148Z,788.59
2018-07-15T00:31:42.465Z,788.58
2018-07-15T00:31:46.674Z,788.58
2018-07-15T00:31:50.881Z,788.58
2018-07-15T00:31:55.191Z,788.59
2018-07-15T00:31:59.505Z,788.62
2018-07-15T00:32:03.780Z,788.57
2018-07-15T00:32:07.884Z,788.6
2018-07-15T00:32:12.088Z,788.56
2018-07-15T00:32:16.290Z,788.62
2018-07-15T00:32:20.599Z,788.67
2018-07-15T00:32:24.693Z,788.64
2018-07-15T00:32:29.009Z,788.59
2018-07-15T00:32:33.215Z,788.63
2018-07-15T00:32:37.531Z,788.62
2018-07-15T00:32:41.855Z,788.67
2018-07-15T00:32:46.163Z,788.64
2018-07-15T00:32:50.164Z,788.68
2018-07-15T00:32:54.472Z,788.63
2018-07-15T00:32:58.678Z,788.62
2018-07-15T00:33:02.776Z,788.62
2018-07-15T00:33:07.093Z,788.66
2018-07-15T00:33:11.292Z,788.66
2018-07-15T00:33:15.611Z,788.62
2018-07-15T00:33:19.826Z,788.63
2018-07-15T00:33:23.922Z,788.64
2018-07-15T00:33:28.127Z,788.64
2018-07-15T00:33:32.334Z,788.66
2018-07-15T00:33:36.540Z,788.64
2018-07-15T00:33:40.891Z,788.63
2018-07-15T00:33:44.880Z,788.69
2018-07-15T00:33:49.078Z,788.7
2018-07-15T00:33:53.285Z,788.7
2018-07-15T00:33:57.484Z,788.68
2018-07-15T00:34:01.589Z,788.69
2018-07-15T00:34:05.686Z,788.7
2018-07-15T00:34:09.779Z,788.72
2018-07-15T00:34:13.994Z,788.68
2018-07-15T00:34:18.201Z,788.69
2018-07-15T00:34:22.511Z,788.69
2018-07-15T00:34:26.499Z,788.67
2018-07-15T00:34:30.704Z,788.65
2018-07-15T00:34:34.906Z,788.68
2018-07-15T00:34:39.213Z,788.65
2018-07-15T00:34:43.415Z,788.62
2018-07-15T00:34:47.506Z,788.66
2018-07-15T00:34:51.614Z,788.7
2018-07-15T00:34:55.929Z,788.63
2018-07-15T00:35:00.240Z,788.67
2018-07-15T00:35:04.229Z,788.67
2018-07-15T00:35:08.333Z,788.66
2018-07-15T00:35:12.666Z,788.68
2018-07-15T00:35:16.872Z,788.64
2018-07-15T00:35:20.972Z,788.61
2018-07-15T00:35:25.170Z,788.61
2018-07-15T00:35:29.483Z,788.66
2018-07-15T00:35:33.684Z,788.64
2018-07-15T00:35:37.888Z,788.66
2018-07-15T00:35:42.198Z,788.56
2018-07-15T00:35:46.524Z,788.66
2018-07-15T00:35:50.840Z,788.63
2018-07-15T00:35:55.155Z,788.58
2018-07-15T00:35:59.248Z,788.57
2018-07-15T00:36:03.455Z,788.61
2018-07-15T00:36:07.549Z,788.61
2018-07-15T00:36:11.793Z,788.63
2018-07-15T00:36:16.102Z,788.63
2018-07-15T00:36:20.414Z,788.62
2018-07-15T00:36:24.731Z,788.59
2018-07-15T00:36:29.041Z,788.57
2018-07-15T00:36:33.248Z,788.63
2018-07-15T00:36:37.448Z,788.58
2018-07-15T00:36:41.670Z,788.64
2018-07-15T00:36:45.772Z,788.67
2018-07-15T00:36:49.988Z,788.65
2018-07-15T00:36:54.197Z,788.64
2018-07-15T00:36:58.293Z,788.69
2018-07-15T00:37:02.281Z,788.7
2018-07-15T00:37:06.397Z,788.68
2018-07-15T00:37:10.496Z,788.66
2018-07-15T00:37:14.590Z,788.72
2018-07-15T00:37:18.801Z,788.72
2018-07-15T00:37:23.122Z,788.73
2018-07-15T00:37:27.332Z,788.73
2018-07-15T00:37:31.652Z,788.74
2018-07-15T00:37:35.855Z,788.76
2018-07-15T00:37:40.159Z,788.74
2018-07-15T00:37:44.362Z,788.77
2018-07-15T00:37:48.564Z,788.76
2018-07-15T00:37:52.761Z,788.79
2018-07-15T00:37:56.921Z,788.77
2018-07-15T00:38:01.123Z,788.77
2018-07-15T00:38:05.452Z,788.77
2018-07-15T00:38:09.550Z,788.78
2018-07-15T00:38:13.651Z,788.79
2018-07-15T00:38:17.956Z,788.81
2018-07-15T00:38:22.159Z,788.82
2018-07-15T00:38:26.377Z,788.82
2018-07-15T00:38:30.579Z,788.83
2018-07-15T00:38:34.804Z,788.83
2018-07-15T00:38:39.114Z,788.79
2018-07-15T00:38:43.319Z,788.83
2018-07-15T00:38:47.539Z,788.85
2018-07-15T00:38:51.844Z,788.84
2018-07-15T00:38:55.836Z,788.85
2018-07-15T00:39:00.051Z,788.86
2018-07-15T00:39:04.146Z,788.88
2018-07-15T00:39:08.346Z,788.86
2018-07-15T00:39:12.667Z,788.85
2018-07-15T00:39:16.978Z,788.87
2018-07-15T00:39:21.350Z,788.9
2018-07-15T00:39:25.561Z,788.89
2018-07-15T00:39:29.663Z,788.9
2018-07-15T00:39:33.975Z,788.96
2018-07-15T00:39:38.289Z,788.92
2018-07-15T00:39:42.490Z,788.88
2018-07-15T00:39:46.690Z,788.95
2018-07-15T00:39:50.996Z,788.94
2018-07-15T00:39:55.300Z,788.93
2018-07-15T00:39:59.290Z,788.96
2018-07-15T00:40:03.601Z,788.97
2018-07-15T00:40:07.482Z,788.96
2018-07-15T00:40:11.683Z,788.92
2018-07-15T00:40:15.880Z,788.95
2018-07-15T00:40:20.193Z,788.96
2018-07-15T00:40:24.396Z,788.98
2018-07-15T00:40:28.494Z,788.99
2018-07-15T00:40:32.795Z,788.94
2018-07-15T00:40:36.888Z,788.95
2018-07-15T00:40:41.089Z,788.92
2018-07-15T00:40:45.296Z,788.98
2018-07-15T00:40:49.406Z,789.04
2018-07-15T00:40:53.717Z,788.97
2018-07-15T00:40:57.826Z,788.99
2018-07-15T00:41:02.156Z,789.02
2018-07-15T00:41:06.261Z,789.03
2018-07-15T00:41:10.572Z,789.01
2018-07-15T00:41:14.895Z,789.04
2018-07-15T00:41:19.099Z,789.02
2018-07-15T00:41:23.313Z,789.05
2018-07-15T00:41:27.476Z,789
2018-07-15T00:41:31.668Z,789.03
2018-07-15T00:41:35.873Z,789.08
2018-07-15T00:41:40.187Z,789.06
2018-07-15T00:41:44.497Z,789.09
2018-07-15T00:41:48.810Z,789.07
2018-07-15T00:41:53.013Z,789.09
2018-07-15T00:41:57.218Z,789.09
2018-07-15T00:42:01.429Z,789.06
2018-07-15T00:42:05.523Z,789.04
2018-07-15T00:42:09.625Z,789.12
2018-07-15T00:42:13.839Z,789.1
2018-07-15T00:42:18.045Z,789.11
2018-07-15T00:42:22.251Z,789.07
2018-07-15T00:42:26.450Z,789.08
2018-07-15T00:42:30.653Z,789.13
2018-07-15T00:42:34.854Z,789.12
2018-07-15T00:42:39.165Z,789.1
2018-07-15T00:42:43.376Z,789.13
2018-07-15T00:42:47.473Z,789.12
2018-07-15T00:42:51.679Z,789.1
2018-07-15T00:42:55.883Z,789.08
2018-07-15T00:43:00.085Z,789.12
2018-07-15T00:43:04.188Z,789.11
2018-07-15T00:43:08.490Z,789.09
2018-07-15T00:43:12.795Z,789.07
2018-07-15T00:43:16.890Z,789.1
2018-07-15T00:43:21.090Z,789.13
2018-07-15T00:43:25.406Z,789.15
2018-07-15T00:43:29.506Z,789.11
2018-07-15T00:43:33.825Z,789.11
2018-07-15T00:43:38.140Z,789.1
2018-07-15T00:43:42.448Z,789.12
2018-07-15T00:43:46.652Z,789.09
2018-07-15T00:43:50.749Z,789.09
2018-07-15T00:43:54.952Z,789.11
2018-07-15T00:43:59.273Z,789.11
2018-07-15T00:44:03.491Z,789.09
2018-07-15T00:44:07.590Z,789.11
2018-07-15T00:44:11.580Z,789.14
2018-07-15T00:44:15.892Z,789.09
2018-07-15T00:44:20.206Z,789.1
2018-07-15T00:44:24.512Z,789.11
2018-07-15T00:44:28.671Z,789.11
2018-07-15T00:44:32.878Z,789.11
2018-07-15T00:44:37.192Z,789.08
2018-07-15T00:44:41.515Z,789.11
2018-07-15T00:44:45.501Z,789.11
2018-07-15T00:44:49.600Z,789.09
2018-07-15T00:44:53.906Z,789.09
2018-07-15T00:44:58.270Z,789.07
2018-07-15T00:45:02.271Z,789.12
2018-07-15T00:45:06.161Z,789.12
2018-07-15T00:45:10.472Z,789.11
2018-07-15T00:45:14.786Z,789.06
2018-07-15T00:45:18.770Z,789.06
2018-07-15T00:45:23.079Z,789.07
2018-07-15T00:45:27.290Z,789.07
2018-07-15T00:45:31.389Z,789.08
2018-07-15T00:45:35.590Z,789.08
2018-07-15T00:45:39.801Z,789.08
2018-07-15T00:45:44.004Z,789.11
2018-07-15T00:45:48.201Z,789.05
2018-07-15T00:45:52.405Z,789.06
2018-07-15T00:45:56.716Z,789.07
2018-07-15T00:46:00.925Z,789.06
2018-07-15T00:46:05.019Z,789.03
2018-07-15T00:46:09.124Z,789.1
2018-07-15T00:46:13.332Z,789.07
2018-07-15T00:46:17.540Z,789.03
2018-07-15T00:46:21.844Z,789.06
2018-07-15T00:46:25.937Z,789.05
2018-07-15T00:46:30.249Z,789.06
2018-07-15T00:46:34.497Z,789.06
2018-07-15T00:46:38.705Z,789.06
2018-07-15T00:46:42.908Z,789.04
2018-07-15T00:46:47.002Z,789.06
2018-07-15T00:46:51.206Z,789.05
2018-07-15T00:46:55.415Z,789.06
2018-07-15T00:46:59.728Z,789.01
2018-07-15T00:47:03.826Z,789.05
2018-07-15T00:47:08.047Z,789.1
2018-07-15T00:47:12.255Z,789.08
2018-07-15T00:47:16.453Z,789.06
2018-07-15T00:47:20.761Z,789.09
2018-07-15T00:47:24.963Z,789.08
2018-07-15T00:47:29.170Z,789.12
2018-07-15T00:47:33.392Z,789.09
2018-07-15T00:47:37.602Z,789.07
2018-07-15T00:47:41.820Z,789.09
2018-07-15T00:47:46.169Z,789.1
2018-07-15T00:47:50.261Z,789.09
2018-07-15T00:47:54.357Z,789.1
2018-07-15T00:47:58.559Z,789.13
2018-07-15T00:48:02.863Z,789.09
2018-07-15T00:48:07.201Z,789.11
2018-07-15T00:48:11.190Z,789.08
2018-07-15T00:48:15.390Z,789.06
2018-07-15T00:48:19.691Z,789.09
2018-07-15T00:48:23.991Z,789.07
2018-07-15T00:48:28.082Z,789.09
2018-07-15T00:48:32.281Z,789.09
2018-07-15T00:48:36.484Z,789.07
2018-07-15T00:48:40.803Z,789.07
2018-07-15T00:48:45.008Z,789.05
2018-07-15T00:48:49.316Z,789.06
2018-07-15T00:48:53.517Z,789.05
2018-07-15T00:48:57.874Z,789.08
2018-07-15T00:49:02.205Z,789.06
2018-07-15T00:49:06.311Z,789.06
2018-07-15T00:49:10.515Z,789.05
2018-07-15T00:49:14.724Z,789.08
2018-07-15T00:49:18.937Z,789.03
2018-07-15T00:49:23.246Z,789.08
2018-07-15T00:49:27.340Z,789.05
2018-07-15T00:49:31.455Z,789.04
2018-07-15T00:49:35.663Z,789.06
2018-07-15T00:49:39.981Z,789.05
2018-07-15T00:49:44.075Z,789
2018-07-15T00:49:48.283Z,789.04
2018-07-15T00:49:52.596Z,789.02
2018-07-15T00:49:56.809Z,789.03
2018-07-15T00:50:01.013Z,789.03
2018-07-15T00:50:05.006Z,789.01
2018-07-15T00:50:09.013Z,788.97
2018-07-15T00:50:13.325Z,788.98
2018-07-15T00:50:17.629Z,788.96
2018-07-15T00:50:21.508Z,789.02
2018-07-15T00:50:25.708Z,789.04
2018-07-15T00:50:29.914Z,789.01
2018-07-15T00:50:34.271Z,788.97
2018-07-15T00:50:38.580Z,789
2018-07-15T00:50:42.898Z,789.03
2018-07-15T00:50:47.105Z,789.01
2018-07-15T00:50:51.475Z,789.01
2018-07-15T00:50:55.785Z,789.01
2018-07-15T00:50:59.991Z,789
2018-07-15T00:51:04.095Z,788.99
2018-07-15T00:51:08.081Z,789.01
2018-07-15T00:51:12.292Z,788.92
2018-07-15T00:51:16.608Z,789.02
2018-07-15T00:51:20.917Z,789.01
2018-07-15T00:51:25.024Z,788.99
2018-07-15T00:51:29.330Z,788.97
2018-07-15T00:51:33.530Z,788.98
2018-07-15T00:51:37.830Z,788.97
2018-07-15T00:51:42.138Z,788.99
2018-07-15T00:51:46.352Z,789
2018-07-15T00:51:50.232Z,788.97
2018-07-15T00:51:54.356Z,788.96
2018-07-15T00:51:58.556Z,788.98
2018-07-15T00:52:02.652Z,788.93
2018-07-15T00:52:06.650Z,788.96
2018-07-15T00:52:10.634Z,788.93
2018-07-15T00:52:14.733Z,788.97
2018-07-15T00:52:18.832Z,788.96
2018-07-15T00:52:22.935Z,788.92
2018-07-15T00:52:27.149Z,788.97
2018-07-15T00:52:31.348Z,788.94
2018-07-15T00:52:35.549Z,788.94
2018-07-15T00:52:39.644Z,788.94
2018-07-15T00:52:43.844Z,788.93
2018-07-15T00:52:48.062Z,788.93
2018-07-15T00:52:52.268Z,788.91